Time;durP1;ratioP1;P1;durP2;ratioP2;P2;SDS_P1;SDS_P2;PMS_P1;PMS_P2;Temp;Humidity;BMP_temperature;BMP_pressure;BME280_temperature;BME280_humidity;BME280_pressure;Samples;Min_cycle;Max_cycle;Signal;HPM_P1;HPM_P2
2022/09/26 00:00:16;;;;;;;2.40;1.83;;;;;;;;;;4968126;28;20781;-74
2022/09/26 00:02:43;;;;;;;2.93;1.60;;;;;;;;;;4978846;28;20312;-73
2022/09/26 00:05:12;;;;;;;1.87;1.73;;;;;;;;;;4996829;28;20656;-75
2022/09/26 00:07:37;;;;;;;3.60;2.00;;;;;;;;;;4969308;28;20217;-74
2022/09/26 00:10:05;;;;;;;2.53;1.93;;;;;;;;;;4997540;28;20212;-74
2022/09/26 00:12:33;;;;;;;3.00;2.00;;;;;;;;;;4979644;28;20706;-74
2022/09/26 00:14:59;;;;;;;2.80;2.50;;;;;;;;;;4997108;28;20607;-75
2022/09/26 00:17:29;;;;;;;3.23;2.70;;;;;;;;;;4997261;28;20227;-75
2022/09/26 00:19:57;;;;;;;2.87;2.50;;;;;;;;;;4996057;28;20311;-74
2022/09/26 00:22:22;;;;;;;7.93;2.87;;;;;;;;;;4993567;28;20240;-74
2022/09/26 00:24:50;;;;;;;3.10;2.50;;;;;;;;;;5001973;28;20221;-75
2022/09/26 00:27:19;;;;;;;2.77;2.50;;;;;;;;;;4994786;28;20248;-74
2022/09/26 00:29:49;;;;;;;2.70;2.50;;;;;;;;;;4959773;28;20744;-74
2022/09/26 00:32:17;;;;;;;5.37;2.37;;;;;;;;;;4975937;28;20267;-74
2022/09/26 00:34:42;;;;;;;4.47;2.60;;;;;;;;;;4995050;28;20239;-75
2022/09/26 00:37:08;;;;;;;4.10;2.70;;;;;;;;;;4996894;28;20216;-75
2022/09/26 00:39:36;;;;;;;2.83;2.63;;;;;;;;;;4981942;28;20251;-74
2022/09/26 00:42:01;;;;;;;3.73;2.77;;;;;;;;;;4996931;28;20216;-75
2022/09/26 00:44:43;;;;;;;3.60;2.63;;;;;;;;;;4996835;28;20224;-75
2022/09/26 00:47:30;;;;;;;2.90;2.60;;;;;;;;;;4998276;28;20213;-75
2022/09/26 00:49:58;;;;;;;3.43;2.83;;;;;;;;;;4999838;28;20256;-75
2022/09/26 00:52:27;;;;;;;3.57;2.90;;;;;;;;;;4980245;28;20278;-75
2022/09/26 00:55:00;;;;;;;2.87;2.40;;;;;;;;;;4965964;28;20224;-76
2022/09/26 00:57:34;;;;;;;4.13;3.00;;;;;;;;;;4982999;28;20297;-75
2022/09/26 01:00:06;;;;;;;3.17;2.40;;;;;;;;;;4992788;28;20744;-75
2022/09/26 01:02:34;;;;;;;4.27;2.90;;;;;;;;;;4960977;28;20761;-73
2022/09/26 01:05:07;;;;;;;4.30;2.67;;;;;;;;;;4981952;28;20224;-74
2022/09/26 01:07:38;;;;;;;3.60;2.70;;;;;;;;;;4980905;28;20251;-75
2022/09/26 01:10:04;;;;;;;4.17;3.03;;;;;;;;;;4976274;28;20221;-75
2022/09/26 01:12:34;;;;;;;4.83;2.80;;;;;;;;;;4997459;28;20712;-75
2022/09/26 01:15:00;;;;;;;4.37;2.87;;;;;;;;;;4997291;28;20255;-74
2022/09/26 01:17:25;;;;;;;5.93;2.80;;;;;;;;;;4978360;28;20627;-73
2022/09/26 01:20:10;;;;;;;4.73;2.90;;;;;;;;;;4964053;28;20236;-75
2022/09/26 01:23:11;;;;;;;5.43;3.43;;;;;;;;;;5009193;28;20311;-76
2022/09/26 01:25:42;;;;;;;6.30;3.20;;;;;;;;;;4981478;28;20220;-74
2022/09/26 01:28:32;;;;;;;6.67;3.00;;;;;;;;;;5006672;28;20252;-75
2022/09/26 01:31:21;;;;;;;5.27;3.10;;;;;;;;;;5005503;28;20259;-75
2022/09/26 01:34:01;;;;;;;3.67;3.07;;;;;;;;;;4954237;28;20256;-75
2022/09/26 01:36:38;;;;;;;5.63;3.30;;;;;;;;;;4959889;28;20213;-74
2022/09/26 01:39:20;;;;;;;4.20;3.33;;;;;;;;;;5011290;28;20281;-74
2022/09/26 01:41:52;;;;;;;3.73;3.40;;;;;;;;;;4992830;28;20243;-75
2022/09/26 01:44:33;;;;;;;7.80;3.43;;;;;;;;;;4975451;28;20220;-74
2022/09/26 01:47:39;;;;;;;4.87;3.43;;;;;;;;;;5005966;28;20225;-75
2022/09/26 01:50:25;;;;;;;6.17;3.77;;;;;;;;;;4953664;28;20251;-74
2022/09/26 01:52:55;;;;;;;5.97;3.40;;;;;;;;;;4995566;28;20817;-75
2022/09/26 01:55:33;;;;;;;3.47;3.17;;;;;;;;;;4984849;28;20312;-74
2022/09/26 01:58:05;;;;;;;3.40;3.10;;;;;;;;;;4950600;28;20224;-74
2022/09/26 02:00:35;;;;;;;3.20;2.90;;;;;;;;;;4974461;28;20678;-74
2022/09/26 02:03:03;;;;;;;8.27;3.60;;;;;;;;;;4997272;28;20237;-74
2022/09/26 02:05:37;;;;;;;4.00;3.20;;;;;;;;;;4976204;28;20220;-74
2022/09/26 02:08:10;;;;;;;3.60;3.30;;;;;;;;;;4980182;28;20228;-74
2022/09/26 02:10:39;;;;;;;5.93;3.60;;;;;;;;;;4990294;28;20711;-74
2022/09/26 02:13:12;;;;;;;4.90;3.63;;;;;;;;;;4975855;28;20711;-74
2022/09/26 02:15:40;;;;;;;8.67;4.13;;;;;;;;;;4975966;28;20565;-74
2022/09/26 02:18:22;;;;;;;5.67;3.53;;;;;;;;;;4978867;28;20307;-74
2022/09/26 02:20:55;;;;;;;3.77;3.43;;;;;;;;;;4962543;28;20232;-74
2022/09/26 02:23:23;;;;;;;8.63;3.73;;;;;;;;;;4992970;28;20241;-74
2022/09/26 02:25:53;;;;;;;4.47;3.57;;;;;;;;;;4982225;28;20221;-74
2022/09/26 02:28:21;;;;;;;4.23;3.47;;;;;;;;;;4954792;28;20757;-74
2022/09/26 02:30:52;;;;;;;6.00;3.40;;;;;;;;;;4993755;28;20702;-74
2022/09/26 02:33:23;;;;;;;5.93;3.20;;;;;;;;;;4974891;28;20235;-73
2022/09/26 02:35:55;;;;;;;5.50;4.17;;;;;;;;;;4979742;28;20607;-74
2022/09/26 02:38:23;;;;;;;3.40;3.10;;;;;;;;;;4976012;28;20620;-74
2022/09/26 02:41:00;;;;;;;5.87;3.17;;;;;;;;;;4972460;28;20718;-74
2022/09/26 02:43:42;;;;;;;3.33;3.00;;;;;;;;;;4976920;28;20267;-75
2022/09/26 02:46:25;;;;;;;6.70;3.30;;;;;;;;;;4971052;28;20252;-74
2022/09/26 02:49:03;;;;;;;5.40;3.50;;;;;;;;;;4996478;28;20236;-74
2022/09/26 02:51:53;;;;;;;3.27;2.93;;;;;;;;;;5009800;28;20265;-75
2022/09/26 02:54:33;;;;;;;5.27;3.20;;;;;;;;;;4986087;28;20224;-76
2022/09/26 02:57:17;;;;;;;5.63;3.40;;;;;;;;;;4978785;28;20276;-74
2022/09/26 02:59:52;;;;;;;4.07;3.20;;;;;;;;;;4994183;28;20730;-73
2022/09/26 03:02:24;;;;;;;4.67;3.40;;;;;;;;;;5002349;28;20274;-75
2022/09/26 03:05:11;;;;;;;5.90;3.40;;;;;;;;;;4978571;28;20312;-75
2022/09/26 03:07:40;;;;;;;4.27;3.50;;;;;;;;;;4981766;28;20226;-74
2022/09/26 03:10:06;;;;;;;3.03;2.63;;;;;;;;;;4975250;28;20223;-76
2022/09/26 03:12:32;;;;;;;5.80;3.50;;;;;;;;;;4961908;28;20597;-74
2022/09/26 03:14:58;;;;;;;4.27;3.03;;;;;;;;;;4962102;28;20225;-74
2022/09/26 03:17:27;;;;;;;5.43;3.10;;;;;;;;;;4977406;28;20227;-74
2022/09/26 03:19:56;;;;;;;3.37;3.03;;;;;;;;;;4961213;28;20256;-74
2022/09/26 03:22:24;;;;;;;3.57;3.13;;;;;;;;;;4966196;28;20220;-75
2022/09/26 03:24:50;;;;;;;3.33;3.03;;;;;;;;;;4959943;28;20300;-75
2022/09/26 03:27:20;;;;;;;3.77;3.03;;;;;;;;;;4975738;28;20584;-74
2022/09/26 03:29:48;;;;;;;3.30;3.00;;;;;;;;;;4964136;28;20220;-74
2022/09/26 03:32:19;;;;;;;4.17;2.90;;;;;;;;;;4994451;28;20224;-73
2022/09/26 03:34:45;;;;;;;4.73;3.00;;;;;;;;;;4994369;28;21043;-72
2022/09/26 03:37:14;;;;;;;6.83;2.90;;;;;;;;;;4957952;28;20216;-74
2022/09/26 03:39:45;;;;;;;3.83;2.97;;;;;;;;;;4981099;28;20212;-74
2022/09/26 03:42:23;;;;;;;3.53;3.23;;;;;;;;;;4976365;28;20304;-75
2022/09/26 03:44:53;;;;;;;5.77;2.93;;;;;;;;;;4961978;28;20622;-74
2022/09/26 03:47:43;;;;;;;4.33;3.00;;;;;;;;;;4995167;28;20698;-73
2022/09/26 03:50:10;;;;;;;3.17;2.97;;;;;;;;;;4990467;28;20220;-75
2022/09/26 03:52:36;;;;;;;3.33;3.00;;;;;;;;;;4975171;28;20220;-76
2022/09/26 03:55:02;;;;;;;4.93;3.00;;;;;;;;;;4992533;28;20221;-74
2022/09/26 03:57:30;;;;;;;3.10;2.80;;;;;;;;;;4944020;28;20247;-74
2022/09/26 04:00:03;;;;;;;5.13;3.10;;;;;;;;;;4977881;28;20240;-74
2022/09/26 04:02:41;;;;;;;3.93;2.30;;;;;;;;;;5005762;28;20311;-74
2022/09/26 04:05:20;;;;;;;4.23;3.00;;;;;;;;;;4977712;28;20216;-74
2022/09/26 04:07:48;;;;;;;4.77;2.50;;;;;;;;;;4944879;28;20228;-74
2022/09/26 04:10:14;;;;;;;2.70;2.50;;;;;;;;;;5001060;28;20868;-74
2022/09/26 04:12:40;;;;;;;4.30;2.90;;;;;;;;;;4995460;28;20224;-74
2022/09/26 04:15:10;;;;;;;6.20;2.70;;;;;;;;;;4975935;28;20302;-75
2022/09/26 04:17:39;;;;;;;3.57;2.50;;;;;;;;;;4975759;28;20221;-75
2022/09/26 04:20:08;;;;;;;7.87;2.90;;;;;;;;;;4967599;28;20225;-73
2022/09/26 04:22:34;;;;;;;3.30;2.60;;;;;;;;;;4993216;28;20600;-74
2022/09/26 04:25:00;;;;;;;2.93;2.50;;;;;;;;;;4986915;28;20225;-74
2022/09/26 04:27:29;;;;;;;7.50;2.57;;;;;;;;;;4992705;28;20217;-75
2022/09/26 04:29:56;;;;;;;2.67;2.23;;;;;;;;;;4990379;28;20227;-75
2022/09/26 04:32:43;;;;;;;3.87;2.83;;;;;;;;;;4992423;28;20228;-75
2022/09/26 04:35:41;;;;;;;3.73;2.57;;;;;;;;;;4984869;28;20216;-74
2022/09/26 04:38:14;;;;;;;3.87;2.63;;;;;;;;;;4997308;28;20227;-74
2022/09/26 04:40:45;;;;;;;2.60;2.40;;;;;;;;;;4968279;28;20626;-74
2022/09/26 04:43:13;;;;;;;3.67;2.67;;;;;;;;;;4981262;28;20223;-75
2022/09/26 04:45:41;;;;;;;2.47;2.27;;;;;;;;;;4992425;28;20306;-74
2022/09/26 04:48:09;;;;;;;2.93;2.40;;;;;;;;;;4980643;28;20303;-74
2022/09/26 04:50:57;;;;;;;4.20;2.97;;;;;;;;;;4986372;28;20226;-74
2022/09/26 04:53:23;;;;;;;3.47;3.10;;;;;;;;;;4976936;28;20259;-74
2022/09/26 04:56:25;;;;;;;5.30;4.00;;;;;;;;;;4982200;28;20770;-73
2022/09/26 04:58:55;;;;;;;3.40;2.77;;;;;;;;;;4957194;28;20331;-74
2022/09/26 05:01:25;;;;;;;4.27;2.63;;;;;;;;;;4981171;28;20229;-73
2022/09/26 05:04:23;;;;;;;3.83;3.10;;;;;;;;;;4982324;28;20232;-75
2022/09/26 05:06:51;;;;;;;3.70;2.77;;;;;;;;;;4999195;28;20256;-74
2022/09/26 05:09:27;;;;;;;4.33;3.17;;;;;;;;;;4997108;28;20220;-74
2022/09/26 05:11:58;;;;;;;3.20;3.00;;;;;;;;;;4997010;28;20212;-74
2022/09/26 05:14:28;;;;;;;3.43;2.67;;;;;;;;;;4963831;28;20213;-74
2022/09/26 05:17:00;;;;;;;4.77;3.10;;;;;;;;;;4982218;28;20223;-73
2022/09/26 05:19:26;;;;;;;3.77;3.40;;;;;;;;;;4980218;28;20225;-72
2022/09/26 05:22:17;;;;;;;3.40;3.10;;;;;;;;;;4971770;28;20735;-73
2022/09/26 05:27:30;;;;;;;4.50;4.10;;;;;;;;;;4991433;28;20233;-75
2022/09/26 05:29:55;;;;;;;8.00;5.10;;;;;;;;;;4981389;28;20217;-72
2022/09/26 05:32:24;;;;;;;6.30;4.60;;;;;;;;;;4978689;28;20311;-74
2022/09/26 05:34:54;;;;;;;4.17;3.77;;;;;;;;;;4975837;28;20699;-75
2022/09/26 05:37:22;;;;;;;3.83;3.47;;;;;;;;;;4964663;28;20213;-75
2022/09/26 05:42:37;;;;;;;4.93;3.87;;;;;;;;;;4978549;28;20227;-74
2022/09/26 05:45:05;;;;;;;4.30;3.43;;;;;;;;;;4980033;28;20224;-74
2022/09/26 05:47:38;;;;;;;4.40;3.73;;;;;;;;;;4979390;28;20275;-72
2022/09/26 05:50:14;;;;;;;4.50;4.07;;;;;;;;;;4959190;28;20245;-75
2022/09/26 05:52:39;;;;;;;4.37;3.87;;;;;;;;;;4995135;28;20224;-75
2022/09/26 05:55:10;;;;;;;4.30;3.80;;;;;;;;;;4994523;28;20232;-74
2022/09/26 05:57:57;;;;;;;4.33;3.77;;;;;;;;;;5009860;28;20312;-73
2022/09/26 06:00:28;;;;;;;4.50;3.93;;;;;;;;;;4970556;28;20669;-74
2022/09/26 06:02:56;;;;;;;5.17;3.67;;;;;;;;;;4993577;28;20229;-76
2022/09/26 06:05:34;;;;;;;4.60;4.20;;;;;;;;;;4994561;28;20227;-74
2022/09/26 06:08:10;;;;;;;4.53;4.13;;;;;;;;;;4978819;28;20213;-74
2022/09/26 06:10:44;;;;;;;4.27;3.87;;;;;;;;;;4979617;28;20695;-74
2022/09/26 06:13:14;;;;;;;5.80;5.30;;;;;;;;;;4995467;28;20294;-74
2022/09/26 06:15:53;;;;;;;8.73;4.87;;;;;;;;;;4969933;28;20702;-74
2022/09/26 06:18:20;;;;;;;5.53;5.03;;;;;;;;;;4960161;28;20225;-73
2022/09/26 06:20:46;;;;;;;5.57;5.07;;;;;;;;;;4978839;28;20710;-75
2022/09/26 06:23:12;;;;;;;4.63;4.23;;;;;;;;;;4992635;28;20212;-75
2022/09/26 06:25:39;;;;;;;4.70;3.90;;;;;;;;;;4961948;28;20217;-75
2022/09/26 06:28:10;;;;;;;7.17;6.00;;;;;;;;;;4992270;28;20232;-73
2022/09/26 06:30:35;;;;;;;8.80;8.00;;;;;;;;;;4975188;28;20209;-75
2022/09/26 06:33:10;;;;;;;9.67;7.17;;;;;;;;;;4976877;28;20217;-75
2022/09/26 06:36:06;;;;;;;6.67;5.93;;;;;;;;;;4987362;28;20220;-77
2022/09/26 06:38:34;;;;;;;7.03;6.33;;;;;;;;;;4962325;28;20224;-74
2022/09/26 06:41:01;;;;;;;5.50;5.00;;;;;;;;;;4979178;28;20225;-74
2022/09/26 06:43:26;;;;;;;6.27;5.70;;;;;;;;;;4949895;28;20324;-75
2022/09/26 06:46:12;;;;;;;5.87;5.30;;;;;;;;;;4989669;28;20224;-75
2022/09/26 06:48:54;;;;;;;6.60;5.80;;;;;;;;;;4993812;28;20224;-75
2022/09/26 06:51:37;;;;;;;7.10;6.40;;;;;;;;;;4982305;28;20258;-74
2022/09/26 06:54:05;;;;;;;8.30;7.60;;;;;;;;;;4987124;28;20263;-75
2022/09/26 06:56:31;;;;;;;8.30;7.47;;;;;;;;;;4980015;28;20742;-75
2022/09/26 06:58:56;;;;;;;8.30;6.60;;;;;;;;;;4983865;28;20231;-76
2022/09/26 07:01:30;;;;;;;7.33;6.20;;;;;;;;;;4977242;28;20233;-76
2022/09/26 07:04:03;;;;;;;7.40;6.70;;;;;;;;;;5007591;28;20223;-76
2022/09/26 07:06:36;;;;;;;6.87;6.00;;;;;;;;;;4964239;28;20228;-75
2022/09/26 07:09:06;;;;;;;6.67;6.03;;;;;;;;;;4997854;28;20707;-76
2022/09/26 07:11:48;;;;;;;9.37;7.47;;;;;;;;;;4978913;28;20307;-74
2022/09/26 07:14:16;;;;;;;8.20;7.43;;;;;;;;;;4958015;28;20233;-75
2022/09/26 07:16:48;;;;;;;9.37;7.73;;;;;;;;;;4958541;28;20249;-73
2022/09/26 07:19:39;;;;;;;8.60;7.77;;;;;;;;;;4971631;28;20582;-73
2022/09/26 07:22:08;;;;;;;9.43;6.90;;;;;;;;;;4959558;28;20235;-75
2022/09/26 07:24:45;;;;;;;6.70;6.10;;;;;;;;;;4964301;28;20255;-75
2022/09/26 07:27:11;;;;;;;7.17;5.87;;;;;;;;;;4974087;28;20225;-73
2022/09/26 07:29:36;;;;;;;6.43;5.83;;;;;;;;;;4976842;28;20742;-75
2022/09/26 07:32:02;;;;;;;8.63;5.93;;;;;;;;;;4976841;28;20769;-75
2022/09/26 07:34:41;;;;;;;7.67;6.00;;;;;;;;;;4992132;28;20746;-75
2022/09/26 07:37:16;;;;;;;6.43;5.83;;;;;;;;;;4992723;28;20219;-74
2022/09/26 07:39:44;;;;;;;9.67;5.50;;;;;;;;;;4960937;28;20313;-74
2022/09/26 07:42:09;;;;;;;6.93;5.67;;;;;;;;;;4961489;28;20637;-75
2022/09/26 07:44:37;;;;;;;6.00;5.37;;;;;;;;;;4985923;28;20212;-75
2022/09/26 07:50:32;;;;;;;7.83;5.50;;;;;;;;;;4983033;28;20266;-72
2022/09/26 07:52:36;;;;;;;5.17;4.77;;;;;;;;;;4979485;28;20225;-73
2022/09/26 07:55:24;;;;;;;5.13;4.70;;;;;;;;;;5010963;28;20248;-73
2022/09/26 07:57:59;;;;;;;5.67;4.90;;;;;;;;;;4977976;28;20706;-75
2022/09/26 08:00:51;;;;;;;6.43;5.30;;;;;;;;;;4976175;28;20233;-75
2022/09/26 08:03:34;;;;;;;5.40;4.90;;;;;;;;;;4991643;28;20232;-76
2022/09/26 08:06:08;;;;;;;6.20;5.17;;;;;;;;;;4951227;28;20230;-74
2022/09/26 08:08:33;;;;;;;6.93;5.33;;;;;;;;;;4977813;28;20227;-74
2022/09/26 08:10:59;;;;;;;5.13;4.60;;;;;;;;;;4996009;28;20772;-72
2022/09/26 08:13:42;;;;;;;8.17;5.00;;;;;;;;;;4989276;28;20224;-74
2022/09/26 08:16:33;;;;;;;5.03;4.63;;;;;;;;;;4984958;28;20224;-75
2022/09/26 08:19:01;;;;;;;4.77;4.37;;;;;;;;;;4980934;28;20581;-75
2022/09/26 08:21:28;;;;;;;5.47;4.50;;;;;;;;;;4995792;28;20229;-75
2022/09/26 08:23:57;;;;;;;5.10;4.40;;;;;;;;;;4968086;28;20737;-74
2022/09/26 08:26:41;;;;;;;6.53;3.83;;;;;;;;;;5013029;28;20231;-73
2022/09/26 08:29:17;;;;;;;10.93;4.07;;;;;;;;;;4984422;28;20229;-76
2022/09/26 08:31:46;;;;;;;4.20;3.80;;;;;;;;;;4976311;28;20299;-73
2022/09/26 08:34:12;;;;;;;7.23;3.53;;;;;;;;;;5009530;28;20231;-75
2022/09/26 08:36:37;;;;;;;4.43;4.00;;;;;;;;;;4978144;28;20600;-75
2022/09/26 08:39:03;;;;;;;4.93;3.43;;;;;;;;;;4994095;28;20217;-73
2022/09/26 08:41:59;;;;;;;4.63;3.10;;;;;;;;;;4998848;28;20263;-75
2022/09/26 08:49:01;;;;;;;3.90;2.90;;;;;;;;;;4990601;28;20220;-74
2022/09/26 08:51:41;;;;;;;2.87;2.57;;;;;;;;;;4986572;28;20596;-75
2022/09/26 08:54:14;;;;;;;3.90;2.87;;;;;;;;;;4976593;28;20217;-73
2022/09/26 08:56:45;;;;;;;5.27;3.33;;;;;;;;;;4980740;28;20296;-75
2022/09/26 08:59:19;;;;;;;3.37;2.60;;;;;;;;;;4979720;28;20710;-73
2022/09/26 09:01:45;;;;;;;3.23;2.73;;;;;;;;;;4979717;28;20262;-73
2022/09/26 09:04:22;;;;;;;3.70;2.57;;;;;;;;;;4994321;28;20229;-75
2022/09/26 09:06:52;;;;;;;4.40;2.90;;;;;;;;;;4994602;28;20289;-74
2022/09/26 09:09:18;;;;;;;3.80;2.80;;;;;;;;;;4959749;28;20260;-72
2022/09/26 09:12:20;;;;;;;3.73;2.60;;;;;;;;;;4997284;28;20255;-73
2022/09/26 09:15:05;;;;;;;3.47;2.80;;;;;;;;;;4996803;28;20845;-74
2022/09/26 09:18:11;;;;;;;3.63;2.80;;;;;;;;;;4979681;28;20248;-75
2022/09/26 09:21:21;;;;;;;2.90;2.40;;;;;;;;;;4996323;28;20239;-73
2022/09/26 09:24:20;;;;;;;5.10;2.80;;;;;;;;;;4984202;28;20729;-74
2022/09/26 09:26:55;;;;;;;2.30;2.10;;;;;;;;;;4995319;28;20698;-73
2022/09/26 09:29:42;;;;;;;5.37;2.43;;;;;;;;;;4991302;28;20229;-73
2022/09/26 09:32:29;;;;;;;2.27;2.07;;;;;;;;;;4996581;28;20227;-74
2022/09/26 09:35:14;;;;;;;5.47;2.40;;;;;;;;;;4985286;28;20221;-73
2022/09/26 09:38:14;;;;;;;2.87;2.20;;;;;;;;;;4967558;28;20221;-71
2022/09/26 09:41:09;;;;;;;4.00;2.53;;;;;;;;;;4966142;28;20848;-73
2022/09/26 09:43:51;;;;;;;4.97;2.50;;;;;;;;;;4991547;28;20658;-73
2022/09/26 09:46:25;;;;;;;2.90;2.43;;;;;;;;;;4975716;28;20221;-75
2022/09/26 09:49:06;;;;;;;2.03;1.87;;;;;;;;;;4945228;28;20761;-74
2022/09/26 09:51:47;;;;;;;4.00;1.90;;;;;;;;;;4965899;28;20220;-73
2022/09/26 09:54:22;;;;;;;3.77;2.27;;;;;;;;;;4992806;28;20259;-72
2022/09/26 09:56:58;;;;;;;3.10;1.87;;;;;;;;;;4997408;28;20753;-72
2022/09/26 09:59:29;;;;;;;2.57;2.20;;;;;;;;;;4980827;28;20230;-76
2022/09/26 10:02:39;;;;;;;3.13;2.10;;;;;;;;;;4981103;28;20292;-72
2022/09/26 10:05:32;;;;;;;3.33;2.00;;;;;;;;;;4951937;28;20229;-74
2022/09/26 10:08:00;;;;;;;3.63;1.70;;;;;;;;;;5007506;28;20732;-73
2022/09/26 10:11:15;;;;;;;2.33;1.90;;;;;;;;;;4969688;28;20400;-73
2022/09/26 10:14:02;;;;;;;3.50;2.50;;;;;;;;;;5009464;28;20243;-72
2022/09/26 10:17:08;;;;;;;4.78;2.83;;;;;;;;;;4995374;28;20237;-73
2022/09/26 10:19:41;;;;;;;3.77;2.30;;;;;;;;;;4978756;28;20235;-73
2022/09/26 10:22:16;;;;;;;2.33;1.93;;;;;;;;;;4977220;28;20228;-72
2022/09/26 10:24:42;;;;;;;3.43;2.20;;;;;;;;;;4979526;28;20224;-75
2022/09/26 10:27:18;;;;;;;2.53;2.10;;;;;;;;;;4976722;28;20216;-72
2022/09/26 10:29:46;;;;;;;3.27;2.23;;;;;;;;;;4972042;28;20709;-73
2022/09/26 10:32:14;;;;;;;2.37;1.80;;;;;;;;;;4996664;28;20221;-73
2022/09/26 10:34:42;;;;;;;2.83;2.00;;;;;;;;;;4992442;28;20303;-73
2022/09/26 10:37:19;;;;;;;2.60;2.40;;;;;;;;;;4978551;28;20227;-73
2022/09/26 10:42:36;;;;;;;3.20;2.90;;;;;;;;;;4981586;28;20221;-74
2022/09/26 10:45:18;;;;;;;4.20;3.80;;;;;;;;;;4962122;28;20338;-72
2022/09/26 10:48:01;;;;;;;2.63;2.30;;;;;;;;;;4980753;28;20275;-72
2022/09/26 10:51:05;;;;;;;3.80;2.30;;;;;;;;;;4914125;28;20239;-75
2022/09/26 10:53:51;;;;;;;2.13;1.93;;;;;;;;;;4907894;29;20226;-73
2022/09/26 10:56:29;;;;;;;2.40;2.17;;;;;;;;;;4940461;28;20243;-74
2022/09/26 10:59:00;;;;;;;4.37;2.40;;;;;;;;;;4959170;28;20660;-73
2022/09/26 11:01:28;;;;;;;4.03;2.57;;;;;;;;;;4958369;28;20235;-73
2022/09/26 11:03:55;;;;;;;3.57;2.30;;;;;;;;;;4993437;28;20284;-73
2022/09/26 11:06:26;;;;;;;3.67;2.57;;;;;;;;;;4995393;28;20736;-75
2022/09/26 11:09:02;;;;;;;4.53;2.23;;;;;;;;;;4964937;28;20656;-71
2022/09/26 11:11:49;;;;;;;3.37;2.50;;;;;;;;;;4993826;28;20231;-74
2022/09/26 11:14:22;;;;;;;2.70;2.23;;;;;;;;;;4961537;28;20221;-72
2022/09/26 11:16:50;;;;;;;2.93;2.30;;;;;;;;;;4975660;28;20239;-73
2022/09/26 11:19:22;;;;;;;2.97;2.13;;;;;;;;;;4992080;28;20262;-74
2022/09/26 11:22:11;;;;;;;3.23;1.90;;;;;;;;;;4973912;28;20236;-73
2022/09/26 11:24:50;;;;;;;2.83;2.00;;;;;;;;;;4996953;28;20253;-74
2022/09/26 11:27:31;;;;;;;4.50;2.17;;;;;;;;;;4962080;28;20764;-75
2022/09/26 11:30:01;;;;;;;2.53;1.77;;;;;;;;;;4992078;28;20220;-73
2022/09/26 11:32:32;;;;;;;2.60;1.75;;;;;;;;;;4992679;28;20613;-74
2022/09/26 11:35:44;;;;;;;3.22;1.88;;;;;;;;;;4981441;28;20686;-74
2022/09/26 11:38:45;;;;;;;3.10;2.08;;;;;;;;;;4964607;28;20577;-73
2022/09/26 11:41:36;;;;;;;3.23;1.80;;;;;;;;;;4991708;28;20232;-74
2022/09/26 11:44:26;;;;;;;1.90;1.70;;;;;;;;;;4991638;28;21207;-74
2022/09/26 11:47:15;;;;;;;2.47;1.80;;;;;;;;;;5009577;28;20216;-72
2022/09/26 11:50:00;;;;;;;2.33;1.67;;;;;;;;;;5004060;28;20291;-74
2022/09/26 11:52:47;;;;;;;3.00;1.57;;;;;;;;;;4999368;28;20228;-73
2022/09/26 11:55:36;;;;;;;5.60;1.77;;;;;;;;;;5011450;28;20595;-73
2022/09/26 11:58:18;;;;;;;2.73;2.00;;;;;;;;;;5007231;28;20220;-73
2022/09/26 12:01:26;;;;;;;1.90;1.73;;;;;;;;;;5013008;28;20286;-73
2022/09/26 12:04:05;;;;;;;1.37;1.23;;;;;;;;;;4980298;28;20689;-74
2022/09/26 12:06:40;;;;;;;2.30;1.60;;;;;;;;;;4999027;28;20225;-74
2022/09/26 12:09:21;;;;;;;5.00;1.70;;;;;;;;;;4959705;28;20224;-73
2022/09/26 12:11:52;;;;;;;7.93;2.07;;;;;;;;;;4993254;28;20235;-72
2022/09/26 12:14:41;;;;;;;3.60;2.20;;;;;;;;;;4991319;28;20216;-72
2022/09/26 12:17:39;;;;;;;3.43;2.50;;;;;;;;;;4976123;28;20217;-73
2022/09/26 12:20:45;;;;;;;6.33;2.87;;;;;;;;;;4972551;28;20225;-73
2022/09/26 12:23:22;;;;;;;4.27;3.27;;;;;;;;;;5002289;28;20228;-73
2022/09/26 12:26:09;;;;;;;7.07;3.97;;;;;;;;;;4986896;28;20769;-73
2022/09/26 12:28:48;;;;;;;6.10;4.80;;;;;;;;;;5006744;28;20228;-72
2022/09/26 12:31:27;;;;;;;7.37;5.23;;;;;;;;;;4993263;28;20659;-72
2022/09/26 12:34:09;;;;;;;5.93;4.47;;;;;;;;;;5013395;28;20224;-71
2022/09/26 12:36:39;;;;;;;8.43;5.53;;;;;;;;;;4993757;28;20220;-71
2022/09/26 12:39:56;;;;;;;5.73;5.07;;;;;;;;;;4992559;28;20233;-75
2022/09/26 12:42:31;;;;;;;10.10;7.87;;;;;;;;;;4988030;28;20316;-72
2022/09/26 12:45:41;;;;;;;11.63;8.37;;;;;;;;;;4991983;28;20961;-73
2022/09/26 12:48:28;;;;;;;14.40;12.30;;;;;;;;;;4931166;29;20236;-73
2022/09/26 12:51:11;;;;;;;22.47;16.83;;;;;;;;;;4991583;28;20254;-72
2022/09/26 12:54:16;;;;;;;25.03;19.53;;;;;;;;;;4992727;28;20229;-71
2022/09/26 12:56:53;;;;;;;20.47;15.57;;;;;;;;;;5008575;28;20228;-72
2022/09/26 12:59:51;;;;;;;19.77;14.57;;;;;;;;;;4994619;28;21431;-71
2022/09/26 13:02:40;;;;;;;11.70;9.70;;;;;;;;;;4982268;28;20291;-73
2022/09/26 13:05:45;;;;;;;10.67;8.73;;;;;;;;;;4959609;28;20229;-74
2022/09/26 13:08:41;;;;;;;6.43;4.63;;;;;;;;;;5010297;28;20608;-76
2022/09/26 13:11:29;;;;;;;5.63;3.90;;;;;;;;;;5009368;28;20701;-72
2022/09/26 13:14:06;;;;;;;4.47;3.20;;;;;;;;;;5007596;28;20216;-71
2022/09/26 13:16:47;;;;;;;3.47;2.43;;;;;;;;;;4974117;28;20741;-71
2022/09/26 13:19:23;;;;;;;4.20;2.27;;;;;;;;;;5006132;28;20403;-75
2022/09/26 13:22:28;;;;;;;2.33;2.10;;;;;;;;;;4993074;28;20236;-73
2022/09/26 13:25:18;;;;;;;2.50;1.93;;;;;;;;;;4968820;28;20229;-74
2022/09/26 13:27:51;;;;;;;2.53;2.00;;;;;;;;;;4981114;28;20220;-75
2022/09/26 13:30:23;;;;;;;1.97;1.50;;;;;;;;;;4994281;28;20309;-72
2022/09/26 13:32:59;;;;;;;3.90;1.60;;;;;;;;;;4978188;28;20876;-76
2022/09/26 13:35:30;;;;;;;2.00;1.60;;;;;;;;;;4977509;28;20244;-73
2022/09/26 13:38:26;;;;;;;3.53;1.63;;;;;;;;;;4978164;28;20635;-74
2022/09/26 13:40:53;;;;;;;2.20;1.83;;;;;;;;;;4979166;28;20328;-75
2022/09/26 13:43:19;;;;;;;2.43;1.60;;;;;;;;;;5009487;28;20239;-73
2022/09/26 13:45:58;;;;;;;2.50;1.60;;;;;;;;;;4978100;28;20224;-73
2022/09/26 13:49:09;;;;;;;1.93;1.50;;;;;;;;;;4987905;28;20221;-74
2022/09/26 13:51:41;;;;;;;2.53;1.63;;;;;;;;;;4993572;28;20217;-74
2022/09/26 13:54:22;;;;;;;3.93;1.87;;;;;;;;;;4976114;28;20220;-75
2022/09/26 13:56:48;;;;;;;2.07;1.60;;;;;;;;;;4961975;28;20227;-75
2022/09/26 13:59:20;;;;;;;2.20;1.47;;;;;;;;;;4997574;28;20608;-75
2022/09/26 14:02:16;;;;;;;2.40;1.50;;;;;;;;;;5010215;28;20306;-74
2022/09/26 14:04:46;;;;;;;1.87;1.70;;;;;;;;;;4982660;28;20277;-73
2022/09/26 14:10:06;;;;;;;2.07;1.50;;;;;;;;;;4978705;28;20229;-76
2022/09/26 14:12:54;;;;;;;4.83;1.50;;;;;;;;;;5008519;28;20229;-77
2022/09/26 14:15:25;;;;;;;2.30;1.50;;;;;;;;;;4993052;28;20224;-74
2022/09/26 14:17:53;;;;;;;3.30;1.73;;;;;;;;;;4971769;28;20229;-74
2022/09/26 14:20:28;;;;;;;2.23;1.30;;;;;;;;;;5008679;28;20275;-75
2022/09/26 14:22:55;;;;;;;1.73;1.63;;;;;;;;;;4976421;28;20231;-76
2022/09/26 14:25:46;;;;;;;5.60;3.77;;;;;;;;;;4996970;28;20227;-74
2022/09/26 14:28:29;;;;;;;3.50;2.00;;;;;;;;;;4986288;28;20225;-73
2022/09/26 14:31:23;;;;;;;3.57;1.70;;;;;;;;;;4992965;28;20315;-73
2022/09/26 14:33:50;;;;;;;2.80;1.77;;;;;;;;;;4974628;28;20323;-72
2022/09/26 14:36:24;;;;;;;2.03;1.33;;;;;;;;;;4978817;28;20220;-74
2022/09/26 14:38:50;;;;;;;1.63;1.53;;;;;;;;;;4993142;28;20278;-72
2022/09/26 14:41:19;;;;;;;1.40;1.30;;;;;;;;;;4974159;28;20228;-75
2022/09/26 14:43:46;;;;;;;1.73;1.50;;;;;;;;;;4992956;28;20279;-75
2022/09/26 14:46:22;;;;;;;4.07;2.23;;;;;;;;;;4991718;28;20299;-74
2022/09/26 14:49:04;;;;;;;3.00;1.67;;;;;;;;;;4978919;28;20220;-74
2022/09/26 14:51:42;;;;;;;2.00;1.80;;;;;;;;;;4970538;28;20221;-74
2022/09/26 14:54:25;;;;;;;2.73;1.90;;;;;;;;;;4992970;28;20212;-74
2022/09/26 14:56:58;;;;;;;4.90;2.00;;;;;;;;;;4996350;28;20224;-73
2022/09/26 14:59:24;;;;;;;2.67;2.00;;;;;;;;;;4976694;28;20244;-74
2022/09/26 15:01:50;;;;;;;3.30;2.10;;;;;;;;;;5006744;28;20232;-74
2022/09/26 15:04:28;;;;;;;2.70;2.20;;;;;;;;;;4975804;28;20219;-73
2022/09/26 15:07:00;;;;;;;5.00;2.20;;;;;;;;;;4972438;28;20225;-73
2022/09/26 15:09:39;;;;;;;2.07;1.87;;;;;;;;;;4978618;28;20220;-71
2022/09/26 15:12:15;;;;;;;2.37;1.90;;;;;;;;;;4977839;28;20228;-73
2022/09/26 15:15:00;;;;;;;2.30;1.80;;;;;;;;;;4988747;28;20231;-72
2022/09/26 15:17:32;;;;;;;4.37;2.00;;;;;;;;;;4975052;28;20773;-73
2022/09/26 15:20:01;;;;;;;1.90;1.80;;;;;;;;;;4973835;28;20229;-73
2022/09/26 15:22:30;;;;;;;2.03;1.60;;;;;;;;;;4975965;28;20233;-72
2022/09/26 15:25:21;;;;;;;1.60;1.50;;;;;;;;;;4979864;28;20236;-71
2022/09/26 15:27:52;;;;;;;1.60;1.50;;;;;;;;;;4978513;28;20221;-71
2022/09/26 15:30:23;;;;;;;2.17;1.50;;;;;;;;;;4979510;28;20216;-74
2022/09/26 15:32:55;;;;;;;2.33;1.77;;;;;;;;;;4957572;28;21124;-74
2022/09/26 15:35:25;;;;;;;2.07;1.63;;;;;;;;;;4980143;28;20291;-70
2022/09/26 15:37:54;;;;;;;1.60;1.50;;;;;;;;;;4992790;28;20213;-75
2022/09/26 15:40:21;;;;;;;2.40;1.47;;;;;;;;;;4962248;28;20593;-75
2022/09/26 15:45:59;;;;;;;1.67;1.50;;;;;;;;;;5008680;28;20271;-74
2022/09/26 15:48:31;;;;;;;3.13;1.37;;;;;;;;;;4993627;28;20230;-75
2022/09/26 15:51:10;;;;;;;1.60;1.50;;;;;;;;;;4992240;28;20241;-74
2022/09/26 15:54:02;;;;;;;3.87;1.60;;;;;;;;;;4992555;28;20227;-74
2022/09/26 15:56:35;;;;;;;3.40;1.77;;;;;;;;;;5008509;28;20213;-74
2022/09/26 15:59:20;;;;;;;2.13;1.50;;;;;;;;;;4973876;28;20695;-74